createdAt,value
2017-05-23T00:01:35.546Z,7.54
2017-05-23T00:04:01.897Z,8.38
2017-05-23T00:06:28.234Z,7.68
2017-05-23T00:08:54.573Z,9.20
2017-05-23T00:11:21.001Z,7.98
2017-05-23T00:13:47.383Z,8.94
2017-05-23T00:16:13.729Z,8.48
2017-05-23T00:18:40.077Z,8.98
2017-05-23T00:21:06.449Z,8.70
2017-05-23T00:23:32.826Z,8.58
2017-05-23T00:25:59.149Z,9.28
2017-05-23T00:28:25.489Z,8.20
2017-05-23T00:30:51.837Z,8.92
2017-05-23T00:33:18.162Z,7.26
2017-05-23T00:35:44.520Z,9.96
2017-05-23T00:38:10.844Z,8.58
2017-05-23T00:40:37.204Z,7.94
2017-05-23T00:43:03.595Z,7.56
2017-05-23T00:45:29.961Z,7.64
2017-05-23T00:47:56.278Z,6.48
2017-05-23T00:50:22.603Z,6.90
2017-05-23T00:52:48.983Z,6.42
2017-05-23T00:55:15.341Z,6.66
2017-05-23T00:57:41.652Z,6.64
2017-05-23T01:00:08.032Z,6.58
2017-05-23T01:02:34.432Z,6.18
2017-05-23T01:05:00.859Z,6.72
2017-05-23T01:07:34.382Z,6.52
2017-05-23T01:10:05.802Z,6.22
2017-05-23T01:12:38.292Z,6.00
2017-05-23T01:15:09.967Z,5.80
2017-05-23T01:17:41.547Z,6.26
2017-05-23T01:20:08.134Z,6.68
2017-05-23T01:22:34.604Z,6.58
2017-05-23T01:25:02.189Z,6.66
2017-05-23T01:27:28.642Z,6.10
2017-05-23T01:30:01.185Z,7.02
2017-05-23T01:32:28.808Z,6.76
2017-05-23T01:34:55.233Z,7.26
2017-05-23T01:37:22.040Z,7.52
2017-05-23T01:39:54.057Z,7.48
2017-05-23T01:42:20.591Z,6.96
2017-05-23T01:44:47.154Z,6.92
2017-05-23T01:47:13.739Z,7.82
2017-05-23T01:49:40.087Z,7.20
2017-05-23T01:52:06.721Z,8.42
2017-05-23T01:54:34.028Z,6.72
2017-05-23T01:57:01.452Z,7.34
2017-05-23T01:59:27.919Z,7.20
2017-05-23T02:01:55.958Z,6.38
2017-05-23T02:04:23.174Z,6.64
2017-05-23T02:06:51.050Z,6.32
2017-05-23T02:09:24.304Z,6.62
2017-05-23T02:11:50.775Z,6.32
2017-05-23T02:14:17.260Z,6.46
2017-05-23T02:16:45.005Z,5.68
2017-05-23T02:19:14.509Z,5.94
2017-05-23T02:21:46.308Z,5.78
2017-05-23T02:24:18.289Z,5.76
2017-05-23T02:26:50.030Z,5.94
2017-05-23T02:29:17.498Z,5.52
2017-05-23T02:31:43.933Z,5.44
2017-05-23T02:34:14.414Z,6.38
2017-05-23T02:36:45.786Z,6.88
2017-05-23T02:39:17.850Z,6.04
2017-05-23T02:41:44.239Z,6.40
2017-05-23T02:44:10.849Z,6.28
2017-05-23T02:46:37.290Z,6.02
2017-05-23T02:49:08.919Z,6.52
2017-05-23T02:51:35.382Z,6.78
2017-05-23T02:54:01.778Z,5.78
2017-05-23T02:56:29.198Z,7.30
2017-05-23T02:58:55.537Z,5.40
2017-05-23T03:01:23.138Z,5.82
2017-05-23T03:03:49.965Z,5.90
2017-05-23T03:06:21.670Z,5.74
2017-05-23T03:08:48.022Z,6.24
2017-05-23T03:11:19.951Z,6.26
2017-05-23T03:13:46.506Z,6.68
2017-05-23T03:16:18.914Z,5.92
2017-05-23T03:18:50.673Z,5.86
2017-05-23T03:21:22.271Z,6.28
2017-05-23T03:23:51.686Z,6.38
2017-05-23T03:26:18.557Z,6.42
2017-05-23T03:28:45.272Z,6.06
2017-05-23T03:31:15.619Z,6.38
2017-05-23T03:33:47.286Z,7.00
2017-05-23T03:36:14.409Z,7.22
2017-05-23T03:38:41.558Z,6.92
2017-05-23T03:41:13.363Z,6.60
2017-05-23T03:43:39.929Z,6.60
2017-05-23T03:46:12.924Z,7.18
2017-05-23T03:48:39.433Z,6.72
2017-05-23T03:51:10.982Z,7.28
2017-05-23T03:53:38.769Z,7.80
2017-05-23T03:56:10.269Z,6.50
2017-05-23T03:58:43.028Z,6.94
2017-05-23T04:01:10.077Z,7.50
2017-05-23T04:03:36.852Z,7.40
2017-05-23T04:06:03.157Z,7.16
2017-05-23T04:08:29.554Z,7.18
2017-05-23T04:10:56.298Z,7.52
2017-05-23T04:13:23.439Z,7.06
2017-05-23T04:15:53.033Z,6.80
2017-05-23T04:18:24.601Z,6.78
2017-05-23T04:20:56.509Z,7.14
2017-05-23T04:23:22.984Z,6.30
2017-05-23T04:25:50.781Z,7.04
2017-05-23T04:28:17.279Z,6.40
2017-05-23T04:30:44.048Z,7.72
2017-05-23T04:33:10.348Z,7.60
2017-05-23T04:35:45.823Z,6.58
2017-05-23T04:38:17.249Z,6.28
2017-05-23T04:40:43.681Z,7.40
2017-05-23T04:43:10.893Z,6.80
2017-05-23T04:45:42.773Z,7.70
2017-05-23T04:48:09.197Z,7.24
2017-05-23T04:50:38.725Z,7.24
2017-05-23T04:53:05.264Z,7.68
2017-05-23T04:55:31.821Z,6.44
2017-05-23T04:57:58.550Z,6.86
2017-05-23T05:00:25.981Z,7.88
2017-05-23T05:02:55.806Z,7.80
2017-05-23T05:05:22.297Z,7.12
2017-05-23T05:07:54.305Z,6.74
2017-05-23T05:10:25.893Z,6.34
2017-05-23T05:12:52.447Z,6.86
2017-05-23T05:15:19.549Z,6.64
2017-05-23T05:17:46.028Z,6.98
2017-05-23T05:20:12.873Z,7.26
2017-05-23T05:22:39.467Z,7.14
2017-05-23T05:25:07.297Z,7.38
2017-05-23T05:27:39.927Z,7.08
2017-05-23T05:30:06.259Z,7.68
2017-05-23T05:32:37.772Z,7.72
2017-05-23T05:35:04.791Z,7.36
2017-05-23T05:37:36.440Z,7.78
2017-05-23T05:40:02.862Z,8.06
2017-05-23T05:42:34.512Z,7.48
2017-05-23T05:45:00.979Z,8.18
2017-05-23T05:47:27.446Z,7.58
2017-05-23T05:49:53.905Z,8.30
2017-05-23T05:52:20.318Z,7.02
2017-05-23T05:54:50.062Z,8.16
2017-05-23T05:57:16.464Z,7.38
2017-05-23T05:59:55.518Z,8.06
2017-05-23T06:02:21.932Z,7.12
2017-05-23T06:04:48.697Z,7.32
2017-05-23T06:07:15.087Z,7.30
2017-05-23T06:09:48.146Z,6.64
2017-05-23T06:12:19.949Z,7.48
2017-05-23T06:14:48.357Z,8.60
2017-05-23T06:17:15.144Z,7.22
2017-05-23T06:19:47.611Z,6.94
2017-05-23T06:22:14.092Z,7.78
2017-05-23T06:24:40.563Z,6.98
2017-05-23T06:27:07.222Z,6.60
2017-05-23T06:29:33.889Z,7.22
2017-05-23T06:32:02.192Z,8.10
2017-05-23T06:34:28.742Z,7.40
2017-05-23T06:37:00.297Z,6.20
2017-05-23T06:39:27.533Z,7.32
2017-05-23T06:41:54.424Z,6.70
2017-05-23T06:44:26.032Z,7.50
2017-05-23T06:46:52.428Z,7.92
2017-05-23T06:49:18.911Z,7.72
2017-05-23T06:51:45.369Z,7.28
2017-05-23T06:54:12.094Z,7.02
2017-05-23T06:56:38.484Z,6.86
2017-05-23T06:59:11.174Z,7.60
2017-05-23T07:01:37.593Z,6.76
2017-05-23T07:04:11.435Z,7.80
2017-05-23T07:06:43.525Z,6.42
2017-05-23T07:09:10.946Z,6.64
2017-05-23T07:11:37.249Z,6.24
2017-05-23T07:14:03.891Z,7.02
2017-05-23T07:16:35.502Z,6.96
2017-05-23T07:19:02.327Z,5.72
2017-05-23T07:21:30.170Z,7.04
2017-05-23T07:24:00.492Z,6.18
2017-05-23T07:26:27.818Z,6.50
2017-05-23T07:28:54.147Z,6.32
2017-05-23T07:31:20.900Z,6.96
2017-05-23T07:33:47.219Z,6.06
2017-05-23T07:36:19.127Z,6.62
2017-05-23T07:38:52.259Z,5.80
2017-05-23T07:41:19.721Z,6.56
2017-05-23T07:43:47.085Z,5.88
2017-05-23T07:46:13.889Z,6.34
2017-05-23T07:48:45.723Z,6.34
2017-05-23T07:51:17.355Z,7.68
2017-05-23T07:53:48.273Z,6.46
2017-05-23T07:56:19.815Z,7.34
2017-05-23T07:58:52.345Z,5.78
2017-05-23T08:01:24.844Z,6.40
2017-05-23T08:03:51.249Z,5.16
2017-05-23T08:06:17.768Z,5.30
2017-05-23T08:08:49.194Z,5.40
2017-05-23T08:11:15.545Z,5.60
2017-05-23T08:13:47.898Z,6.26
2017-05-23T08:16:14.330Z,5.04
2017-05-23T08:18:40.998Z,5.10
2017-05-23T08:21:07.443Z,6.62
2017-05-23T08:23:38.917Z,5.02
2017-05-23T08:26:05.429Z,6.54
2017-05-23T08:28:39.784Z,5.74
2017-05-23T08:31:06.252Z,6.88
2017-05-23T08:33:37.941Z,6.82
2017-05-23T08:36:04.527Z,7.32
2017-05-23T08:38:31.961Z,6.28
2017-05-23T08:40:58.442Z,7.02
2017-05-23T08:43:28.290Z,6.60
2017-05-23T08:46:00.007Z,6.88
2017-05-23T08:48:30.460Z,5.84
2017-05-23T08:51:02.576Z,6.02
2017-05-23T08:53:34.380Z,5.06
2017-05-23T08:56:01.134Z,6.02
2017-05-23T08:58:27.808Z,4.74
2017-05-23T09:00:54.407Z,5.44
2017-05-23T09:03:20.745Z,4.74
2017-05-23T09:05:47.391Z,5.74
2017-05-23T09:08:16.987Z,5.14
2017-05-23T09:10:46.454Z,5.30
2017-05-23T09:13:16.597Z,5.54
2017-05-23T09:15:50.170Z,5.38
2017-05-23T09:18:19.581Z,4.70
2017-05-23T09:20:52.021Z,4.40
2017-05-23T09:23:18.381Z,5.08
2017-05-23T09:26:02.584Z,5.16
2017-05-23T09:28:29.222Z,5.58
2017-05-23T09:30:55.570Z,5.48
2017-05-23T09:33:21.927Z,4.76
2017-05-23T09:35:48.283Z,4.88
2017-05-23T09:38:14.615Z,3.90
2017-05-23T09:40:40.954Z,5.56
2017-05-23T09:43:07.265Z,4.12
2017-05-23T09:45:33.591Z,5.88
2017-05-23T09:47:59.909Z,4.96
2017-05-23T09:50:26.274Z,5.30
2017-05-23T09:52:52.602Z,4.64
2017-05-23T09:55:18.963Z,4.32
2017-05-23T09:57:45.299Z,5.12
2017-05-23T10:00:11.670Z,5.18
2017-05-23T10:02:38.001Z,4.54
2017-05-23T10:05:04.379Z,4.04
2017-05-23T10:07:30.710Z,3.34
2017-05-23T10:09:57.009Z,2.98
2017-05-23T10:12:23.303Z,2.90
2017-05-23T10:14:49.654Z,3.00
2017-05-23T10:17:15.969Z,3.02
2017-05-23T10:19:42.274Z,2.60
2017-05-23T10:22:08.603Z,2.90
2017-05-23T10:24:34.937Z,2.62
2017-05-23T10:27:01.249Z,3.98
2017-05-23T10:29:27.585Z,2.92
2017-05-23T10:31:53.925Z,2.48
2017-05-23T10:34:20.267Z,3.12
2017-05-23T10:36:46.591Z,2.82
2017-05-23T10:39:12.898Z,3.22
2017-05-23T10:41:39.224Z,3.84
2017-05-23T10:44:05.543Z,3.24
2017-05-23T10:46:31.851Z,3.44
2017-05-23T10:48:58.219Z,4.32
2017-05-23T10:51:24.552Z,3.86
2017-05-23T10:53:50.846Z,4.64
2017-05-23T10:56:17.181Z,4.50
2017-05-23T10:58:43.522Z,4.92
2017-05-23T11:01:09.842Z,4.38
2017-05-23T11:03:36.234Z,4.44
2017-05-23T11:06:02.562Z,4.40
2017-05-23T11:08:28.893Z,7.40
2017-05-23T11:10:55.229Z,6.32
2017-05-23T11:13:21.547Z,6.16
2017-05-23T11:15:47.883Z,8.40
2017-05-23T11:18:14.206Z,5.32
2017-05-23T11:20:40.524Z,5.64
2017-05-23T11:23:06.900Z,7.24
2017-05-23T11:25:33.202Z,6.32
2017-05-23T11:27:59.555Z,8.16
2017-05-23T11:30:25.895Z,8.04
2017-05-23T11:32:52.241Z,8.86
2017-05-23T11:35:18.589Z,7.66
2017-05-23T11:37:44.925Z,8.02
2017-05-23T11:40:11.253Z,11.38
2017-05-23T11:42:37.593Z,9.20
2017-05-23T11:45:03.938Z,10.08
2017-05-23T11:47:30.246Z,9.12
2017-05-23T11:49:56.562Z,9.46
2017-05-23T11:52:22.886Z,7.26
2017-05-23T11:54:49.243Z,10.44
2017-05-23T11:57:15.584Z,10.24
2017-05-23T11:59:41.900Z,7.66
2017-05-23T12:02:08.223Z,7.14
2017-05-23T12:04:34.556Z,6.66
2017-05-23T12:07:00.900Z,7.88
2017-05-23T12:09:27.233Z,6.80
2017-05-23T12:11:53.571Z,6.50
2017-05-23T12:14:19.900Z,5.86
2017-05-23T12:16:46.218Z,6.18
2017-05-23T12:19:12.534Z,6.76
2017-05-23T12:21:38.874Z,8.26
2017-05-23T12:24:05.190Z,8.76
2017-05-23T12:26:31.513Z,7.02
2017-05-23T12:28:57.829Z,6.96
2017-05-23T12:31:24.148Z,6.10
2017-05-23T12:33:50.480Z,6.90
2017-05-23T12:36:16.838Z,6.44
2017-05-23T12:38:43.159Z,5.18
2017-05-23T12:41:09.508Z,7.22
2017-05-23T12:43:35.841Z,8.10
2017-05-23T12:46:02.867Z,6.42
2017-05-23T12:48:29.230Z,6.36
2017-05-23T12:50:55.523Z,5.82
2017-05-23T12:53:21.929Z,5.62
2017-05-23T12:55:48.339Z,5.50
2017-05-23T12:58:14.650Z,5.02
2017-05-23T13:00:40.983Z,5.48
2017-05-23T13:03:07.296Z,5.74
2017-05-23T13:05:33.681Z,5.70
2017-05-23T13:08:00.003Z,6.86
2017-05-23T13:10:26.335Z,5.80
2017-05-23T13:12:52.663Z,6.78
2017-05-23T13:15:19.001Z,6.40
2017-05-23T13:17:45.375Z,4.82
2017-05-23T13:20:11.750Z,4.22
2017-05-23T13:22:38.071Z,5.02
2017-05-23T13:25:04.370Z,5.28
2017-05-23T13:27:30.711Z,4.50
2017-05-23T13:29:57.061Z,5.74
2017-05-23T13:32:23.371Z,5.18
2017-05-23T13:34:49.692Z,4.16
2017-05-23T13:37:16.018Z,4.58
2017-05-23T13:39:42.347Z,3.96
2017-05-23T13:42:08.701Z,3.68
2017-05-23T13:44:35.024Z,4.04
2017-05-23T13:47:01.338Z,4.20
2017-05-23T13:49:27.660Z,5.46
2017-05-23T13:51:53.981Z,3.68
2017-05-23T13:54:20.329Z,4.34
2017-05-23T13:56:46.661Z,4.34
2017-05-23T13:59:12.987Z,4.36
2017-05-23T14:01:39.299Z,4.06
2017-05-23T14:04:05.631Z,4.82
2017-05-23T14:06:31.983Z,6.08
2017-05-23T14:08:58.307Z,5.54
2017-05-23T14:11:24.649Z,6.20
2017-05-23T14:13:51.020Z,6.56
2017-05-23T14:16:17.334Z,6.62
2017-05-23T14:18:43.697Z,6.44
2017-05-23T14:21:10.031Z,7.16
2017-05-23T14:23:36.350Z,8.82
2017-05-23T14:26:02.655Z,8.12
2017-05-23T14:28:29.006Z,7.52
2017-05-23T14:30:55.327Z,7.56
2017-05-23T14:33:21.658Z,7.32
2017-05-23T14:35:48.031Z,5.48
2017-05-23T14:38:14.375Z,5.52
2017-05-23T14:40:40.694Z,5.72
2017-05-23T14:43:07.007Z,7.46
2017-05-23T14:45:33.350Z,6.94
2017-05-23T14:47:59.801Z,5.60
2017-05-23T14:50:26.126Z,4.88
2017-05-23T14:52:52.434Z,5.16
2017-05-23T14:55:18.753Z,4.94
2017-05-23T14:57:45.098Z,5.00
2017-05-23T15:00:11.417Z,4.08
2017-05-23T15:02:37.739Z,3.58
2017-05-23T15:05:04.089Z,3.92
2017-05-23T15:07:30.398Z,3.76
2017-05-23T15:09:56.741Z,3.34
2017-05-23T15:12:23.098Z,3.08
2017-05-23T15:14:49.423Z,2.72
2017-05-23T15:17:15.777Z,3.58
2017-05-23T15:19:42.147Z,3.48
2017-05-23T15:22:08.478Z,3.34
2017-05-23T15:24:34.802Z,2.76
2017-05-23T15:27:01.138Z,3.98
2017-05-23T15:29:27.472Z,3.02
2017-05-23T15:31:53.798Z,2.92
2017-05-23T15:34:20.130Z,3.40
2017-05-23T15:36:46.458Z,2.72
2017-05-23T15:39:12.796Z,2.44
2017-05-23T15:41:39.140Z,2.92
2017-05-23T15:44:05.494Z,2.42
2017-05-23T15:46:31.826Z,2.50
2017-05-23T15:48:58.201Z,2.44
2017-05-23T15:51:24.512Z,2.10
2017-05-23T15:53:50.841Z,2.16
2017-05-23T15:56:17.166Z,2.04
2017-05-23T15:58:43.471Z,2.44
2017-05-23T16:01:09.800Z,2.20
2017-05-23T16:03:36.133Z,2.28
2017-05-23T16:06:02.489Z,3.64
2017-05-23T16:08:28.832Z,2.86
2017-05-23T16:10:55.157Z,3.00
2017-05-23T16:13:21.519Z,2.88
2017-05-23T16:15:47.921Z,2.72
2017-05-23T16:18:14.267Z,2.68
2017-05-23T16:20:41.552Z,3.32
2017-05-23T16:23:08.423Z,2.64
2017-05-23T16:25:34.801Z,2.80
2017-05-23T16:28:01.119Z,2.38
2017-05-23T16:30:27.517Z,2.64
2017-05-23T16:32:53.861Z,2.30
2017-05-23T16:35:20.174Z,1.84
2017-05-23T16:37:46.526Z,2.18
2017-05-23T16:40:12.834Z,2.70
2017-05-23T16:42:39.209Z,2.24
2017-05-23T16:45:05.533Z,2.48
2017-05-23T16:47:31.859Z,2.58
2017-05-23T16:49:58.191Z,2.48
2017-05-23T16:52:24.529Z,2.68
2017-05-23T16:54:50.863Z,2.30
2017-05-23T16:57:17.193Z,2.68
2017-05-23T16:59:43.530Z,2.62
2017-05-23T17:02:09.838Z,2.16
2017-05-23T17:04:36.177Z,2.90
2017-05-23T17:07:02.541Z,2.44
2017-05-23T17:09:28.913Z,2.52
2017-05-23T17:11:55.254Z,2.62
2017-05-23T17:14:21.598Z,2.52
2017-05-23T17:16:47.938Z,2.28
2017-05-23T17:19:14.267Z,2.60
2017-05-23T17:21:40.588Z,1.84
2017-05-23T17:24:06.926Z,2.60
2017-05-23T17:26:33.273Z,2.28
2017-05-23T17:28:59.640Z,2.02
2017-05-23T17:31:25.993Z,2.26
2017-05-23T17:33:52.321Z,2.52
2017-05-23T17:36:18.660Z,2.50
2017-05-23T17:38:45.026Z,2.52
2017-05-23T17:41:11.347Z,2.08
2017-05-23T17:43:37.691Z,1.70
2017-05-23T17:46:04.010Z,1.94
2017-05-23T17:48:30.328Z,1.24
2017-05-23T17:50:56.657Z,1.46
2017-05-23T17:53:22.988Z,1.44
2017-05-23T17:55:49.306Z,1.66
2017-05-23T17:58:15.637Z,1.44
2017-05-23T18:00:41.947Z,1.20
2017-05-23T18:03:08.260Z,1.18
2017-05-23T18:05:34.615Z,1.00
2017-05-23T18:08:00.994Z,1.30
2017-05-23T18:10:27.342Z,1.10
2017-05-23T18:12:53.642Z,1.20
2017-05-23T18:15:19.989Z,1.02
2017-05-23T18:17:46.321Z,1.24
2017-05-23T18:20:12.634Z,1.04
2017-05-23T18:22:39.012Z,1.18
2017-05-23T18:25:05.334Z,1.64
2017-05-23T18:27:31.683Z,1.44
2017-05-23T18:29:58.029Z,1.00
2017-05-23T18:32:24.362Z,1.30
2017-05-23T18:34:50.783Z,1.74
2017-05-23T18:37:17.151Z,2.24
2017-05-23T18:39:44.156Z,1.38
2017-05-23T18:42:10.525Z,1.80
2017-05-23T18:44:36.902Z,1.50
2017-05-23T18:47:03.251Z,1.44
2017-05-23T18:49:29.606Z,1.86
2017-05-23T18:51:55.951Z,1.26
2017-05-23T18:54:22.286Z,1.84
2017-05-23T18:56:48.637Z,1.86
2017-05-23T18:59:14.982Z,1.24
2017-05-23T19:01:41.307Z,2.30
2017-05-23T19:04:07.658Z,1.32
2017-05-23T19:06:33.994Z,1.76
2017-05-23T19:09:00.622Z,1.40
2017-05-23T19:11:27.058Z,1.30
2017-05-23T19:13:53.571Z,1.10
2017-05-23T19:16:21.129Z,1.64
2017-05-23T19:18:47.545Z,1.36
2017-05-23T19:21:14.060Z,1.78
2017-05-23T19:23:40.476Z,1.50
2017-05-23T19:26:06.877Z,2.04
2017-05-23T19:28:33.211Z,1.20
2017-05-23T19:30:59.586Z,1.70
2017-05-23T19:33:25.941Z,1.38
2017-05-23T19:35:52.286Z,1.98
2017-05-23T19:38:18.637Z,1.44
2017-05-23T19:40:44.984Z,1.72
2017-05-23T19:43:11.396Z,1.70
2017-05-23T19:45:37.736Z,1.56
2017-05-23T19:48:04.195Z,1.58
2017-05-23T19:50:30.952Z,1.60
2017-05-23T19:52:57.476Z,1.70
2017-05-23T19:55:25.266Z,1.80
2017-05-23T19:57:53.140Z,1.56
